createdAt,value
2022-10-18T00:02:11.014Z,21.00
2022-10-18T00:04:38.062Z,21.00
2022-10-18T00:07:05.313Z,21.00
2022-10-18T00:09:32.404Z,20.90
2022-10-18T00:11:59.613Z,21.00
2022-10-18T00:14:26.674Z,21.00
2022-10-18T00:16:53.981Z,20.90
2022-10-18T00:19:23.764Z,21.00
2022-10-18T00:21:53.214Z,21.00
2022-10-18T00:24:20.290Z,20.90
2022-10-18T00:26:47.385Z,20.90
2022-10-18T00:29:15.553Z,20.90
2022-10-18T00:31:43.159Z,20.90
2022-10-18T00:34:11.868Z,21.00
2022-10-18T00:36:38.913Z,20.90
2022-10-18T00:39:06.875Z,20.90
2022-10-18T00:41:35.189Z,20.90
2022-10-18T00:44:03.941Z,20.90
2022-10-18T00:46:32.534Z,20.90
2022-10-18T00:49:01.177Z,20.90
2022-10-18T00:51:36.213Z,20.90
2022-10-18T00:54:03.419Z,20.90
2022-10-18T00:56:30.592Z,20.90
2022-10-18T00:58:58.028Z,20.90
2022-10-18T01:01:28.279Z,20.90
2022-10-18T01:03:56.601Z,20.90
2022-10-18T01:06:24.061Z,20.90
2022-10-18T01:09:14.272Z,20.90
2022-10-18T01:12:07.481Z,20.90
2022-10-18T01:14:53.070Z,20.90
2022-10-18T01:17:38.029Z,20.90
2022-10-18T01:20:10.812Z,20.90
2022-10-18T01:22:39.476Z,20.90
2022-10-18T01:25:12.805Z,20.90
2022-10-18T01:27:39.888Z,20.90
2022-10-18T01:30:14.464Z,20.90
2022-10-18T01:32:44.701Z,20.90
2022-10-18T01:35:13.704Z,20.90
2022-10-18T01:37:43.224Z,20.90
2022-10-18T01:40:12.414Z,20.90
2022-10-18T01:42:40.049Z,20.90
2022-10-18T01:45:08.069Z,20.90
2022-10-18T01:47:36.228Z,20.90
2022-10-18T01:50:04.790Z,20.90
2022-10-18T01:52:32.078Z,20.90
2022-10-18T01:55:00.497Z,20.90
2022-10-18T01:57:47.410Z,20.80
2022-10-18T02:00:15.993Z,20.90
2022-10-18T02:02:49.207Z,20.90
2022-10-18T02:05:32.878Z,20.90
2022-10-18T02:08:21.999Z,20.90
2022-10-18T02:10:55.362Z,20.90
2022-10-18T02:13:23.418Z,20.80
2022-10-18T02:15:53.035Z,20.80
2022-10-18T02:18:25.651Z,20.80
2022-10-18T02:20:52.844Z,20.80
2022-10-18T02:23:21.241Z,20.80
2022-10-18T02:25:48.553Z,20.80
2022-10-18T02:28:15.756Z,20.80
2022-10-18T02:30:57.728Z,20.80
2022-10-18T02:33:31.283Z,20.80
2022-10-18T02:36:02.517Z,20.80
2022-10-18T02:38:29.871Z,20.80
2022-10-18T02:40:57.089Z,20.80
2022-10-18T02:43:24.736Z,20.80
2022-10-18T02:45:52.093Z,20.80
2022-10-18T02:48:19.141Z,20.80
2022-10-18T02:50:46.296Z,20.80
2022-10-18T02:53:13.333Z,20.80
2022-10-18T02:55:40.385Z,20.80
2022-10-18T02:58:07.453Z,20.80
2022-10-18T03:00:34.479Z,20.80
2022-10-18T03:03:01.533Z,20.80
2022-10-18T03:05:28.577Z,20.80
2022-10-18T03:07:58.668Z,20.80
2022-10-18T03:10:25.670Z,20.80
2022-10-18T03:12:52.725Z,20.80
2022-10-18T03:15:19.777Z,20.80
2022-10-18T03:17:46.888Z,20.80
2022-10-18T03:20:13.970Z,20.80
2022-10-18T03:22:41.090Z,20.80
2022-10-18T03:25:08.234Z,20.80
2022-10-18T03:27:35.311Z,20.80
2022-10-18T03:30:02.463Z,20.80
2022-10-18T03:32:29.671Z,20.80
2022-10-18T03:34:56.865Z,20.80
2022-10-18T03:37:23.949Z,20.80
2022-10-18T03:39:51.097Z,20.80
2022-10-18T03:42:18.079Z,20.80
2022-10-18T03:44:45.367Z,20.80
2022-10-18T03:47:12.827Z,20.80
2022-10-18T03:49:39.981Z,20.80
2022-10-18T03:52:07.221Z,20.80
2022-10-18T03:54:34.266Z,20.80
2022-10-18T03:57:01.291Z,20.80
2022-10-18T03:59:28.431Z,20.80
2022-10-18T04:01:55.482Z,20.80
2022-10-18T04:04:22.665Z,20.90
2022-10-18T04:06:49.720Z,20.90
2022-10-18T04:09:16.765Z,20.90
2022-10-18T04:11:43.817Z,20.90
2022-10-18T04:14:10.929Z,20.90
2022-10-18T04:16:38.048Z,20.90
2022-10-18T04:19:05.089Z,20.90
2022-10-18T04:21:32.175Z,21.00
2022-10-18T04:23:59.258Z,21.00
2022-10-18T04:26:26.305Z,21.00
2022-10-18T04:28:53.405Z,21.00
2022-10-18T04:31:20.482Z,21.00
2022-10-18T04:33:47.576Z,21.00
2022-10-18T04:36:14.678Z,21.00
2022-10-18T04:38:41.754Z,21.00
2022-10-18T04:41:09.051Z,21.00
2022-10-18T04:43:36.168Z,21.00
2022-10-18T04:46:03.328Z,21.00
2022-10-18T04:48:30.368Z,21.00
2022-10-18T04:50:57.548Z,21.00
2022-10-18T04:53:24.721Z,21.00
2022-10-18T04:55:51.755Z,21.00
2022-10-18T04:58:19.153Z,21.00
2022-10-18T05:00:47.609Z,21.10
2022-10-18T05:03:14.789Z,21.00
2022-10-18T05:06:00.826Z,21.00
2022-10-18T05:08:29.214Z,21.00
2022-10-18T05:10:56.343Z,21.00
2022-10-18T05:13:23.448Z,21.00
2022-10-18T05:15:50.821Z,21.00
2022-10-18T05:18:17.962Z,21.00
2022-10-18T05:20:44.991Z,21.00
2022-10-18T05:23:12.102Z,21.00
2022-10-18T05:25:39.696Z,21.00
2022-10-18T05:28:10.834Z,21.00
2022-10-18T05:30:48.264Z,21.00
2022-10-18T05:33:15.299Z,21.10
2022-10-18T05:35:42.528Z,21.00
2022-10-18T05:38:09.576Z,21.00
2022-10-18T05:40:38.433Z,21.00
2022-10-18T05:43:05.497Z,21.00
2022-10-18T05:45:32.650Z,21.00
2022-10-18T05:47:59.819Z,21.00
2022-10-18T05:50:26.906Z,21.00
2022-10-18T05:53:02.721Z,21.00
2022-10-18T05:55:39.664Z,21.00
2022-10-18T05:58:06.750Z,21.00
2022-10-18T06:00:33.894Z,21.00
2022-10-18T06:03:00.999Z,21.00
2022-10-18T06:05:28.194Z,21.00
2022-10-18T06:07:56.146Z,21.00
2022-10-18T06:10:23.272Z,21.00
2022-10-18T06:12:50.305Z,21.00
2022-10-18T06:15:17.595Z,21.00
2022-10-18T06:17:44.645Z,21.00
2022-10-18T06:20:11.689Z,21.00
2022-10-18T06:22:38.721Z,21.00
2022-10-18T06:25:06.054Z,21.00
2022-10-18T06:27:34.055Z,21.00
2022-10-18T06:30:01.495Z,21.00
2022-10-18T06:32:28.538Z,21.00
2022-10-18T06:34:55.616Z,21.00
2022-10-18T06:37:22.643Z,21.00
2022-10-18T06:39:49.719Z,21.00
2022-10-18T06:42:19.080Z,21.00
2022-10-18T06:44:49.772Z,21.00
2022-10-18T06:47:16.800Z,21.00
2022-10-18T06:49:43.939Z,21.00
2022-10-18T06:52:10.978Z,21.00
2022-10-18T06:54:38.054Z,21.00
2022-10-18T06:57:05.105Z,21.00
2022-10-18T06:59:32.247Z,21.00
2022-10-18T07:02:00.306Z,21.00
2022-10-18T07:04:33.306Z,21.00
2022-10-18T07:07:00.360Z,21.00
2022-10-18T07:09:27.450Z,21.00
2022-10-18T07:11:54.493Z,21.00
2022-10-18T07:14:23.760Z,21.00
2022-10-18T07:16:53.953Z,21.00
2022-10-18T07:19:21.029Z,21.00
2022-10-18T07:21:48.250Z,21.00
2022-10-18T07:24:15.327Z,21.00
2022-10-18T07:26:42.543Z,21.00
2022-10-18T07:29:10.984Z,21.00
2022-10-18T07:31:41.176Z,21.00
2022-10-18T07:34:09.016Z,21.00
2022-10-18T07:36:36.069Z,21.00
2022-10-18T07:39:03.481Z,21.00
2022-10-18T07:41:33.294Z,21.00
2022-10-18T07:44:00.537Z,21.00
2022-10-18T07:46:27.637Z,21.00
2022-10-18T07:48:54.717Z,21.00
2022-10-18T07:51:22.244Z,21.00
2022-10-18T07:53:49.377Z,21.00
2022-10-18T07:56:20.435Z,21.00
2022-10-18T07:58:49.139Z,21.00
2022-10-18T08:01:16.297Z,21.00
2022-10-18T08:03:43.848Z,21.10
2022-10-18T08:06:11.806Z,21.00
2022-10-18T08:08:39.521Z,21.10
2022-10-18T08:11:09.020Z,21.10
2022-10-18T08:13:36.244Z,21.10
2022-10-18T08:16:04.481Z,21.10
2022-10-18T08:18:31.723Z,21.10
2022-10-18T08:21:02.469Z,21.10
2022-10-18T08:23:29.773Z,21.10
2022-10-18T08:25:57.087Z,21.10
2022-10-18T08:28:24.255Z,21.10
2022-10-18T08:30:51.407Z,21.10
2022-10-18T08:33:18.530Z,21.10
2022-10-18T08:35:54.498Z,21.10
2022-10-18T08:38:21.628Z,21.10
2022-10-18T08:40:48.770Z,21.10
2022-10-18T08:43:21.741Z,21.10
2022-10-18T08:45:49.499Z,21.10
2022-10-18T08:48:24.082Z,21.10
2022-10-18T08:50:51.752Z,21.10
2022-10-18T08:53:26.237Z,21.10
2022-10-18T08:56:05.540Z,21.20
2022-10-18T08:58:33.520Z,21.10
2022-10-18T09:01:19.496Z,21.10
2022-10-18T09:04:05.203Z,21.10
2022-10-18T09:06:32.334Z,21.10
2022-10-18T09:08:59.330Z,21.20
2022-10-18T09:11:32.312Z,21.10
2022-10-18T09:14:23.665Z,21.10
2022-10-18T09:16:50.753Z,21.20
2022-10-18T09:19:24.355Z,21.10
2022-10-18T09:21:52.935Z,21.10
2022-10-18T09:24:19.950Z,21.10
2022-10-18T09:26:48.774Z,21.10
2022-10-18T09:29:37.845Z,21.10
2022-10-18T09:32:05.051Z,21.10
2022-10-18T09:34:38.435Z,21.10
2022-10-18T09:37:10.361Z,21.10
2022-10-18T09:39:38.164Z,21.10
2022-10-18T09:42:05.258Z,21.10
2022-10-18T09:44:38.035Z,21.10
2022-10-18T09:47:16.895Z,21.10
2022-10-18T09:49:47.261Z,21.10
2022-10-18T09:52:20.274Z,21.10
2022-10-18T09:54:55.333Z,21.10
2022-10-18T09:57:26.561Z,21.10
2022-10-18T09:59:53.619Z,21.10
2022-10-18T10:02:22.308Z,21.10
2022-10-18T10:04:54.224Z,21.10
2022-10-18T10:07:24.424Z,21.10
2022-10-18T10:09:59.446Z,21.10
2022-10-18T10:12:31.325Z,21.20
2022-10-18T10:15:07.671Z,21.20
2022-10-18T10:17:35.212Z,21.20
2022-10-18T10:20:04.675Z,21.20
2022-10-18T10:22:39.060Z,21.20
2022-10-18T10:25:06.567Z,21.20
2022-10-18T10:27:41.056Z,21.20
2022-10-18T10:30:28.110Z,21.20
2022-10-18T10:32:55.903Z,21.20
2022-10-18T10:35:34.029Z,21.20
2022-10-18T10:38:22.333Z,21.20
2022-10-18T10:40:50.319Z,21.20
2022-10-18T10:43:40.633Z,21.20
2022-10-18T10:46:07.815Z,21.20
2022-10-18T10:48:40.473Z,21.20
2022-10-18T10:51:08.866Z,21.20
2022-10-18T10:53:43.719Z,21.20
2022-10-18T10:56:16.981Z,21.20
2022-10-18T10:58:44.064Z,21.20
2022-10-18T11:01:18.602Z,21.20
2022-10-18T11:03:46.689Z,21.20
2022-10-18T11:06:52.388Z,21.20
2022-10-18T11:09:24.779Z,21.20
2022-10-18T11:12:02.767Z,21.20
2022-10-18T11:14:33.831Z,21.20
2022-10-18T11:17:17.556Z,21.20
2022-10-18T11:20:09.717Z,21.20
2022-10-18T11:22:47.322Z,21.20
2022-10-18T11:25:16.112Z,21.20
2022-10-18T11:27:49.130Z,21.20
2022-10-18T11:30:25.716Z,21.20
2022-10-18T11:33:06.648Z,21.20
2022-10-18T11:35:47.332Z,21.20
2022-10-18T11:38:29.230Z,21.20
2022-10-18T11:41:07.786Z,21.20
2022-10-18T11:43:57.505Z,21.20
2022-10-18T11:46:31.170Z,21.20
2022-10-18T11:49:19.724Z,21.20
2022-10-18T11:52:07.361Z,21.20
2022-10-18T11:54:45.246Z,21.20
2022-10-18T11:57:15.109Z,21.20
2022-10-18T11:59:45.237Z,21.20
2022-10-18T12:02:31.271Z,21.20
2022-10-18T12:08:08.382Z,21.20
2022-10-18T12:10:46.081Z,21.20
2022-10-18T12:13:27.939Z,21.20
2022-10-18T12:15:55.560Z,21.20
2022-10-18T12:18:24.106Z,21.20
2022-10-18T12:20:52.765Z,21.20
2022-10-18T12:23:30.251Z,21.20
2022-10-18T12:26:05.535Z,21.30
2022-10-18T12:28:32.688Z,21.30
2022-10-18T12:31:18.202Z,21.20
2022-10-18T12:33:46.639Z,21.20
2022-10-18T12:36:28.949Z,21.30
2022-10-18T12:38:55.994Z,21.20
2022-10-18T12:41:25.360Z,21.20
2022-10-18T12:43:54.075Z,21.20
2022-10-18T12:46:21.162Z,21.20
2022-10-18T12:49:01.802Z,21.20
2022-10-18T12:51:29.149Z,21.20
2022-10-18T12:54:02.398Z,21.30
2022-10-18T12:56:29.601Z,21.30
2022-10-18T12:59:26.291Z,21.30
2022-10-18T13:01:53.507Z,21.20
2022-10-18T13:04:33.538Z,21.20
2022-10-18T13:07:00.728Z,21.30
2022-10-18T13:09:36.393Z,21.30
2022-10-18T13:12:09.517Z,21.30
2022-10-18T13:15:12.702Z,21.30
2022-10-18T13:18:03.117Z,21.20
2022-10-18T13:20:46.235Z,21.20
2022-10-18T13:23:31.605Z,21.20
2022-10-18T13:26:09.789Z,21.20
2022-10-18T13:28:55.296Z,21.20
2022-10-18T13:31:44.744Z,21.20
2022-10-18T13:34:25.471Z,21.20
2022-10-18T13:37:01.527Z,21.20
2022-10-18T13:39:29.057Z,21.20
2022-10-18T13:41:57.798Z,21.20
2022-10-18T13:44:37.229Z,21.20
2022-10-18T13:47:04.259Z,21.20
2022-10-18T13:49:40.203Z,21.20
2022-10-18T13:52:25.970Z,21.20
2022-10-18T13:54:52.997Z,21.20
2022-10-18T13:57:38.570Z,21.20
2022-10-18T14:00:05.636Z,21.20
2022-10-18T14:02:59.883Z,21.30
2022-10-18T14:05:37.728Z,21.20
2022-10-18T14:08:10.798Z,21.20
2022-10-18T14:11:01.458Z,21.20
2022-10-18T14:13:51.307Z,21.30
2022-10-18T14:16:21.517Z,21.30
2022-10-18T14:18:51.250Z,21.20
2022-10-18T14:21:30.221Z,21.30
2022-10-18T14:23:58.703Z,21.30
2022-10-18T14:26:29.186Z,21.20
2022-10-18T14:29:06.429Z,21.30
2022-10-18T14:31:34.624Z,21.20
2022-10-18T14:34:02.540Z,21.30
2022-10-18T14:36:35.821Z,21.30
2022-10-18T14:39:06.832Z,21.30
2022-10-18T14:41:35.410Z,21.20
2022-10-18T14:44:11.770Z,21.30
2022-10-18T14:46:43.353Z,21.20
2022-10-18T14:49:11.094Z,21.30
2022-10-18T14:51:39.191Z,21.30
2022-10-18T14:54:07.844Z,21.30
2022-10-18T14:56:39.169Z,21.30
2022-10-18T14:59:17.808Z,21.30
2022-10-18T15:01:56.108Z,21.30
2022-10-18T15:04:27.805Z,21.30
2022-10-18T15:06:55.926Z,21.30
2022-10-18T15:09:24.162Z,21.30
2022-10-18T15:11:51.753Z,21.30
2022-10-18T15:14:19.347Z,21.20
2022-10-18T15:16:46.787Z,21.30
2022-10-18T15:19:13.833Z,21.30
2022-10-18T15:25:11.690Z,21.30
2022-10-18T15:30:15.139Z,21.20
2022-10-18T15:33:01.549Z,21.30
2022-10-18T15:35:30.381Z,21.30
2022-10-18T15:37:58.674Z,21.30
2022-10-18T15:40:28.704Z,21.30
2022-10-18T15:42:57.004Z,21.30
2022-10-18T15:45:25.404Z,21.30
2022-10-18T15:48:10.253Z,21.30
2022-10-18T15:50:41.366Z,21.30
2022-10-18T15:53:16.533Z,21.30
2022-10-18T15:55:55.910Z,21.30
2022-10-18T15:58:25.076Z,21.30
2022-10-18T16:00:53.108Z,21.30
2022-10-18T16:03:22.084Z,21.30
2022-10-18T16:05:51.047Z,21.20
2022-10-18T16:08:19.338Z,21.30
2022-10-18T16:10:46.493Z,21.30
2022-10-18T16:13:13.547Z,21.30
2022-10-18T16:15:40.569Z,21.30
2022-10-18T16:18:09.152Z,21.40
2022-10-18T16:20:36.221Z,21.40
2022-10-18T16:23:08.789Z,21.50
2022-10-18T16:25:35.828Z,21.50
2022-10-18T16:28:02.920Z,21.60
2022-10-18T16:30:32.482Z,21.60
2022-10-18T16:32:59.484Z,21.60
2022-10-18T16:35:26.490Z,21.60
2022-10-18T16:37:53.534Z,21.60
2022-10-18T16:40:24.471Z,21.60
2022-10-18T16:42:51.632Z,21.60
2022-10-18T16:45:18.675Z,21.70
2022-10-18T16:47:45.964Z,21.70
2022-10-18T16:50:14.986Z,21.70
2022-10-18T16:52:42.314Z,21.70
2022-10-18T16:55:24.678Z,21.70
2022-10-18T16:57:51.910Z,21.60
2022-10-18T17:00:20.875Z,21.70
2022-10-18T17:02:48.648Z,21.70
2022-10-18T17:05:16.162Z,21.70
2022-10-18T17:07:43.400Z,21.60
2022-10-18T17:10:12.196Z,21.60
2022-10-18T17:12:39.339Z,21.60
2022-10-18T17:15:06.797Z,21.60
2022-10-18T17:17:34.178Z,21.60
2022-10-18T17:20:01.439Z,21.60
2022-10-18T17:22:28.458Z,21.60
2022-10-18T17:24:55.508Z,21.60
2022-10-18T17:27:22.734Z,21.60
2022-10-18T17:29:49.722Z,21.60
2022-10-18T17:32:16.717Z,21.60
2022-10-18T17:34:43.805Z,21.60
2022-10-18T17:37:10.855Z,21.50
2022-10-18T17:39:38.258Z,21.60
2022-10-18T17:42:05.282Z,21.50
2022-10-18T17:44:32.344Z,21.50
2022-10-18T17:46:59.354Z,21.50
2022-10-18T17:49:26.366Z,21.50
2022-10-18T17:51:53.401Z,21.50
2022-10-18T17:54:20.626Z,21.50
2022-10-18T17:56:49.900Z,21.50
2022-10-18T17:59:19.348Z,21.50
2022-10-18T18:04:16.918Z,21.40
2022-10-18T18:06:45.352Z,21.40
2022-10-18T18:09:13.959Z,21.40
2022-10-18T18:11:43.310Z,21.40
2022-10-18T18:14:11.424Z,21.40
2022-10-18T18:16:39.886Z,21.40
2022-10-18T18:19:09.807Z,21.40
2022-10-18T18:21:37.413Z,21.40
2022-10-18T18:24:04.511Z,21.40
2022-10-18T18:26:32.696Z,21.40
2022-10-18T18:29:00.284Z,21.40
2022-10-18T18:31:30.717Z,21.40
2022-10-18T18:34:01.521Z,21.40
2022-10-18T18:36:32.464Z,21.40
2022-10-18T18:38:59.812Z,21.40
2022-10-18T18:41:27.852Z,21.40
2022-10-18T18:43:58.907Z,21.40
2022-10-18T18:46:26.843Z,21.40
2022-10-18T18:48:54.306Z,21.40
2022-10-18T18:51:21.985Z,21.40
2022-10-18T18:53:49.047Z,21.40
2022-10-18T18:58:48.573Z,21.40
2022-10-18T19:01:19.958Z,21.40
2022-10-18T19:03:48.345Z,21.40
2022-10-18T19:06:21.835Z,21.40
2022-10-18T19:08:49.193Z,21.40
2022-10-18T19:11:18.010Z,21.40
2022-10-18T19:13:45.446Z,21.40
2022-10-18T19:16:32.924Z,21.40
2022-10-18T19:18:59.993Z,21.40
2022-10-18T19:21:28.619Z,21.40
2022-10-18T19:23:56.629Z,21.40
2022-10-18T19:26:26.106Z,21.40
2022-10-18T19:28:53.270Z,21.40
2022-10-18T19:31:20.353Z,21.40
2022-10-18T19:33:58.953Z,21.40
2022-10-18T19:36:27.381Z,21.40
2022-10-18T19:38:54.511Z,21.40
2022-10-18T19:41:23.503Z,21.30
2022-10-18T19:43:50.921Z,21.40
2022-10-18T19:46:18.414Z,21.40
2022-10-18T19:48:45.646Z,21.30
2022-10-18T19:51:16.015Z,21.40
2022-10-18T19:53:48.010Z,21.40
2022-10-18T19:56:17.723Z,21.40
2022-10-18T19:58:45.487Z,21.30
2022-10-18T20:01:13.498Z,21.40
2022-10-18T20:03:40.813Z,21.40
2022-10-18T20:06:08.296Z,21.30
2022-10-18T20:08:36.382Z,21.30
2022-10-18T20:11:10.676Z,21.30
2022-10-18T20:13:37.902Z,21.30
2022-10-18T20:16:06.869Z,21.30
2022-10-18T20:18:33.933Z,21.30
2022-10-18T20:21:03.844Z,21.30
2022-10-18T20:23:32.428Z,21.30
2022-10-18T20:26:00.485Z,21.30
2022-10-18T20:28:28.245Z,21.30
2022-10-18T20:30:59.280Z,21.30
2022-10-18T20:33:26.401Z,21.30
2022-10-18T20:35:53.625Z,21.30
2022-10-18T20:38:20.941Z,21.30
2022-10-18T20:40:48.034Z,21.20
2022-10-18T20:43:15.100Z,21.20
2022-10-18T20:45:42.397Z,21.20
2022-10-18T20:48:09.472Z,21.20
2022-10-18T20:50:39.907Z,21.20
2022-10-18T20:53:06.991Z,21.20
2022-10-18T20:55:33.979Z,21.20
2022-10-18T20:58:00.975Z,21.20
2022-10-18T21:00:28.101Z,21.20
2022-10-18T21:02:57.495Z,21.20
2022-10-18T21:05:24.498Z,21.20
2022-10-18T21:07:51.539Z,21.20
2022-10-18T21:10:18.686Z,21.20
2022-10-18T21:12:46.865Z,21.10
2022-10-18T21:15:14.349Z,21.20
2022-10-18T21:17:41.399Z,21.20
2022-10-18T21:20:08.945Z,21.20
2022-10-18T21:22:36.152Z,21.10
2022-10-18T21:25:03.425Z,21.20
2022-10-18T21:27:30.580Z,21.10
2022-10-18T21:29:57.664Z,21.20
2022-10-18T21:32:24.870Z,21.10
2022-10-18T21:34:51.955Z,21.10
2022-10-18T21:37:18.979Z,21.10
2022-10-18T21:39:46.607Z,21.10
2022-10-18T21:42:13.817Z,21.10
2022-10-18T21:44:40.830Z,21.10
2022-10-18T21:47:07.888Z,21.10
2022-10-18T21:49:35.188Z,21.10
2022-10-18T21:52:05.336Z,21.10
2022-10-18T21:54:32.370Z,21.10
2022-10-18T21:56:59.385Z,21.10
2022-10-18T21:59:26.409Z,21.10
2022-10-18T22:01:53.440Z,21.10
2022-10-18T22:04:24.306Z,21.10
2022-10-18T22:06:51.835Z,21.10
2022-10-18T22:09:18.961Z,21.10
2022-10-18T22:11:48.238Z,21.10
2022-10-18T22:14:15.282Z,21.10
2022-10-18T22:16:42.349Z,21.10
2022-10-18T22:19:09.466Z,21.10
2022-10-18T22:21:36.542Z,21.10
2022-10-18T22:24:05.049Z,21.10
2022-10-18T22:26:33.333Z,21.10
2022-10-18T22:29:05.362Z,21.10
2022-10-18T22:31:34.325Z,21.10
2022-10-18T22:34:03.190Z,21.00
2022-10-18T22:36:30.592Z,21.10
2022-10-18T22:38:57.622Z,21.10
2022-10-18T22:41:24.669Z,21.10
2022-10-18T22:43:52.249Z,21.00
2022-10-18T22:46:19.671Z,21.10
2022-10-18T22:48:47.060Z,21.00
2022-10-18T22:51:14.489Z,21.00
2022-10-18T22:53:41.612Z,21.00
2022-10-18T22:56:09.740Z,21.00
2022-10-18T22:58:36.738Z,21.00
2022-10-18T23:01:05.874Z,21.00
2022-10-18T23:03:32.942Z,21.00
2022-10-18T23:06:00.156Z,21.00
2022-10-18T23:08:27.536Z,21.00
2022-10-18T23:10:55.928Z,21.00
2022-10-18T23:13:23.828Z,21.00
2022-10-18T23:15:50.949Z,21.00
2022-10-18T23:18:18.565Z,21.00
2022-10-18T23:20:45.620Z,21.00
2022-10-18T23:23:12.972Z,21.00
2022-10-18T23:25:40.049Z,20.90
2022-10-18T23:28:07.082Z,21.00
2022-10-18T23:30:34.247Z,20.90
2022-10-18T23:33:01.319Z,21.00
2022-10-18T23:35:29.612Z,20.90
2022-10-18T23:37:56.675Z,21.00
2022-10-18T23:40:23.746Z,21.00
2022-10-18T23:42:50.813Z,20.90
2022-10-18T23:45:20.047Z,20.90
2022-10-18T23:47:47.035Z,20.90
2022-10-18T23:50:14.084Z,20.90
2022-10-18T23:52:41.085Z,20.90
2022-10-18T23:55:08.204Z,20.90
2022-10-18T23:57:35.507Z,20.90
